sensor_id;sensor_type;location;lat;lon;timestamp;P1;durP1;ratioP1;P2;durP2;ratioP2
6671;SDS011;3372;48.690;12.362;2022-08-23T00:01:49;5.70;;;5.20;;
6671;SDS011;3372;48.690;12.362;2022-08-23T00:04:19;6.20;;;5.23;;
6671;SDS011;3372;48.690;12.362;2022-08-23T00:06:47;5.90;;;5.30;;
6671;SDS011;3372;48.690;12.362;2022-08-23T00:09:15;5.93;;;5.33;;
6671;SDS011;3372;48.690;12.362;2022-08-23T00:11:43;6.43;;;5.73;;
6671;SDS011;3372;48.690;12.362;2022-08-23T00:14:21;6.37;;;5.67;;
6671;SDS011;3372;48.690;12.362;2022-08-23T00:16:51;7.23;;;5.23;;
6671;SDS011;3372;48.690;12.362;2022-08-23T00:19:18;7.00;;;5.87;;
6671;SDS011;3372;48.690;12.362;2022-08-23T00:21:45;6.50;;;5.50;;
6671;SDS011;3372;48.690;12.362;2022-08-23T00:24:12;6.87;;;5.57;;
6671;SDS011;3372;48.690;12.362;2022-08-23T00:26:46;7.73;;;6.70;;
6671;SDS011;3372;48.690;12.362;2022-08-23T00:29:22;6.23;;;5.63;;
6671;SDS011;3372;48.690;12.362;2022-08-23T00:31:50;7.40;;;5.60;;
6671;SDS011;3372;48.690;12.362;2022-08-23T00:34:16;7.43;;;6.30;;
6671;SDS011;3372;48.690;12.362;2022-08-23T00:36:42;8.80;;;6.50;;
6671;SDS011;3372;48.690;12.362;2022-08-23T00:39:11;8.00;;;6.53;;
6671;SDS011;3372;48.690;12.362;2022-08-23T00:41:37;6.40;;;5.70;;
6671;SDS011;3372;48.690;12.362;2022-08-23T00:44:04;7.87;;;6.90;;
6671;SDS011;3372;48.690;12.362;2022-08-23T00:46:53;7.27;;;6.47;;
6671;SDS011;3372;48.690;12.362;2022-08-23T00:49:40;6.50;;;5.80;;
6671;SDS011;3372;48.690;12.362;2022-08-23T00:55:02;7.87;;;6.63;;
6671;SDS011;3372;48.690;12.362;2022-08-23T00:57:29;7.33;;;6.63;;
6671;SDS011;3372;48.690;12.362;2022-08-23T00:59:56;7.23;;;6.17;;
6671;SDS011;3372;48.690;12.362;2022-08-23T01:02:22;8.40;;;6.00;;
6671;SDS011;3372;48.690;12.362;2022-08-23T01:04:51;8.80;;;6.00;;
6671;SDS011;3372;48.690;12.362;2022-08-23T01:10:15;6.90;;;6.13;;
6671;SDS011;3372;48.690;12.362;2022-08-23T01:13:00;8.20;;;6.53;;
6671;SDS011;3372;48.690;12.362;2022-08-23T01:15:34;8.67;;;7.23;;
6671;SDS011;3372;48.690;12.362;2022-08-23T01:18:06;7.43;;;6.50;;
6671;SDS011;3372;48.690;12.362;2022-08-23T01:20:44;7.87;;;6.57;;
6671;SDS011;3372;48.690;12.362;2022-08-23T01:25:50;9.50;;;6.23;;
6671;SDS011;3372;48.690;12.362;2022-08-23T01:28:16;6.83;;;6.20;;
6671;SDS011;3372;48.690;12.362;2022-08-23T01:30:42;7.80;;;6.20;;
6671;SDS011;3372;48.690;12.362;2022-08-23T01:33:10;7.67;;;6.83;;
6671;SDS011;3372;48.690;12.362;2022-08-23T01:35:40;8.23;;;6.47;;
6671;SDS011;3372;48.690;12.362;2022-08-23T01:38:09;6.40;;;5.80;;
6671;SDS011;3372;48.690;12.362;2022-08-23T01:40:37;8.07;;;6.33;;
6671;SDS011;3372;48.690;12.362;2022-08-23T01:43:05;7.33;;;5.90;;
6671;SDS011;3372;48.690;12.362;2022-08-23T01:45:31;6.80;;;5.73;;
6671;SDS011;3372;48.690;12.362;2022-08-23T01:47:58;6.17;;;5.30;;
6671;SDS011;3372;48.690;12.362;2022-08-23T01:50:25;7.80;;;5.27;;
6671;SDS011;3372;48.690;12.362;2022-08-23T01:52:51;6.97;;;5.87;;
6671;SDS011;3372;48.690;12.362;2022-08-23T01:55:17;7.97;;;5.70;;
6671;SDS011;3372;48.690;12.362;2022-08-23T01:57:44;5.30;;;4.80;;
6671;SDS011;3372;48.690;12.362;2022-08-23T02:00:11;6.50;;;5.53;;
6671;SDS011;3372;48.690;12.362;2022-08-23T02:02:37;5.80;;;5.20;;
6671;SDS011;3372;48.690;12.362;2022-08-23T02:05:06;5.93;;;5.13;;
6671;SDS011;3372;48.690;12.362;2022-08-23T02:07:32;6.50;;;5.63;;
6671;SDS011;3372;48.690;12.362;2022-08-23T02:09:58;6.00;;;5.40;;
6671;SDS011;3372;48.690;12.362;2022-08-23T02:12:24;7.80;;;5.40;;
6671;SDS011;3372;48.690;12.362;2022-08-23T02:14:49;6.57;;;5.70;;
6671;SDS011;3372;48.690;12.362;2022-08-23T02:17:15;6.27;;;5.40;;
6671;SDS011;3372;48.690;12.362;2022-08-23T02:19:42;6.43;;;5.23;;
6671;SDS011;3372;48.690;12.362;2022-08-23T02:22:09;6.00;;;5.40;;
6671;SDS011;3372;48.690;12.362;2022-08-23T02:24:38;8.47;;;5.63;;
6671;SDS011;3372;48.690;12.362;2022-08-23T02:27:06;7.53;;;5.90;;
6671;SDS011;3372;48.690;12.362;2022-08-23T02:29:33;6.60;;;5.90;;
6671;SDS011;3372;48.690;12.362;2022-08-23T02:31:59;6.77;;;6.07;;
6671;SDS011;3372;48.690;12.362;2022-08-23T02:34:26;6.90;;;5.30;;
6671;SDS011;3372;48.690;12.362;2022-08-23T02:36:53;8.60;;;6.10;;
6671;SDS011;3372;48.690;12.362;2022-08-23T02:39:18;6.50;;;5.57;;
6671;SDS011;3372;48.690;12.362;2022-08-23T02:41:44;6.23;;;5.50;;
6671;SDS011;3372;48.690;12.362;2022-08-23T02:44:10;6.00;;;5.37;;
6671;SDS011;3372;48.690;12.362;2022-08-23T02:46:36;7.40;;;5.43;;
6671;SDS011;3372;48.690;12.362;2022-08-23T02:49:02;7.93;;;6.13;;
6671;SDS011;3372;48.690;12.362;2022-08-23T02:51:28;6.60;;;5.80;;
6671;SDS011;3372;48.690;12.362;2022-08-23T02:53:55;8.53;;;6.40;;
6671;SDS011;3372;48.690;12.362;2022-08-23T02:56:21;6.63;;;5.73;;
6671;SDS011;3372;48.690;12.362;2022-08-23T02:58:47;12.17;;;6.40;;
6671;SDS011;3372;48.690;12.362;2022-08-23T03:01:17;6.33;;;5.73;;
6671;SDS011;3372;48.690;12.362;2022-08-23T03:03:44;6.20;;;5.60;;
6671;SDS011;3372;48.690;12.362;2022-08-23T03:06:11;6.50;;;5.73;;
6671;SDS011;3372;48.690;12.362;2022-08-23T03:08:38;6.27;;;5.67;;
6671;SDS011;3372;48.690;12.362;2022-08-23T03:11:08;8.37;;;5.80;;
6671;SDS011;3372;48.690;12.362;2022-08-23T03:13:35;6.97;;;6.10;;
6671;SDS011;3372;48.690;12.362;2022-08-23T03:16:01;6.93;;;5.60;;
6671;SDS011;3372;48.690;12.362;2022-08-23T03:18:27;7.77;;;6.17;;
6671;SDS011;3372;48.690;12.362;2022-08-23T03:20:52;5.90;;;5.30;;
6671;SDS011;3372;48.690;12.362;2022-08-23T03:23:18;6.30;;;5.70;;
6671;SDS011;3372;48.690;12.362;2022-08-23T03:25:43;7.37;;;6.67;;
6671;SDS011;3372;48.690;12.362;2022-08-23T03:28:09;6.63;;;5.97;;
6671;SDS011;3372;48.690;12.362;2022-08-23T03:30:35;6.67;;;6.03;;
6671;SDS011;3372;48.690;12.362;2022-08-23T03:33:01;6.90;;;6.30;;
6671;SDS011;3372;48.690;12.362;2022-08-23T03:35:27;8.50;;;6.27;;
6671;SDS011;3372;48.690;12.362;2022-08-23T03:37:54;6.30;;;5.70;;
6671;SDS011;3372;48.690;12.362;2022-08-23T03:40:20;5.73;;;5.20;;
6671;SDS011;3372;48.690;12.362;2022-08-23T03:42:47;6.93;;;5.73;;
6671;SDS011;3372;48.690;12.362;2022-08-23T03:45:13;6.60;;;5.93;;
6671;SDS011;3372;48.690;12.362;2022-08-23T03:47:39;6.60;;;6.00;;
6671;SDS011;3372;48.690;12.362;2022-08-23T03:50:04;9.63;;;7.70;;
6671;SDS011;3372;48.690;12.362;2022-08-23T03:52:30;6.73;;;5.80;;
6671;SDS011;3372;48.690;12.362;2022-08-23T03:54:56;6.60;;;6.00;;
6671;SDS011;3372;48.690;12.362;2022-08-23T03:57:22;7.40;;;6.70;;
6671;SDS011;3372;48.690;12.362;2022-08-23T03:59:47;6.60;;;6.00;;
6671;SDS011;3372;48.690;12.362;2022-08-23T04:02:13;7.20;;;6.53;;
6671;SDS011;3372;48.690;12.362;2022-08-23T04:04:39;8.17;;;7.37;;
6671;SDS011;3372;48.690;12.362;2022-08-23T04:07:06;8.80;;;7.47;;
6671;SDS011;3372;48.690;12.362;2022-08-23T04:09:32;7.80;;;7.00;;
6671;SDS011;3372;48.690;12.362;2022-08-23T04:11:57;7.93;;;7.13;;
6671;SDS011;3372;48.690;12.362;2022-08-23T04:14:23;8.20;;;6.57;;
6671;SDS011;3372;48.690;12.362;2022-08-23T04:16:49;7.60;;;6.90;;
6671;SDS011;3372;48.690;12.362;2022-08-23T04:19:14;7.20;;;6.50;;
6671;SDS011;3372;48.690;12.362;2022-08-23T04:21:42;8.10;;;7.20;;
6671;SDS011;3372;48.690;12.362;2022-08-23T04:24:14;8.07;;;6.80;;
6671;SDS011;3372;48.690;12.362;2022-08-23T04:26:41;9.13;;;6.43;;
6671;SDS011;3372;48.690;12.362;2022-08-23T04:29:07;7.77;;;6.40;;
6671;SDS011;3372;48.690;12.362;2022-08-23T04:31:33;7.93;;;6.83;;
6671;SDS011;3372;48.690;12.362;2022-08-23T04:34:00;7.30;;;6.60;;
6671;SDS011;3372;48.690;12.362;2022-08-23T04:36:27;7.40;;;6.70;;
6671;SDS011;3372;48.690;12.362;2022-08-23T04:38:56;8.83;;;7.57;;
6671;SDS011;3372;48.690;12.362;2022-08-23T04:41:22;8.07;;;6.60;;
6671;SDS011;3372;48.690;12.362;2022-08-23T04:44:17;8.57;;;7.10;;
6671;SDS011;3372;48.690;12.362;2022-08-23T04:46:42;12.43;;;6.83;;
6671;SDS011;3372;48.690;12.362;2022-08-23T04:49:08;10.23;;;7.47;;
6671;SDS011;3372;48.690;12.362;2022-08-23T04:51:35;7.80;;;6.43;;
6671;SDS011;3372;48.690;12.362;2022-08-23T04:54:01;8.23;;;7.37;;
6671;SDS011;3372;48.690;12.362;2022-08-23T04:56:27;6.80;;;5.90;;
6671;SDS011;3372;48.690;12.362;2022-08-23T04:58:53;7.50;;;6.80;;
6671;SDS011;3372;48.690;12.362;2022-08-23T05:01:19;9.93;;;7.37;;
6671;SDS011;3372;48.690;12.362;2022-08-23T05:03:44;7.70;;;7.00;;
6671;SDS011;3372;48.690;12.362;2022-08-23T05:06:10;9.77;;;6.80;;
6671;SDS011;3372;48.690;12.362;2022-08-23T05:08:36;8.97;;;7.30;;
6671;SDS011;3372;48.690;12.362;2022-08-23T05:11:04;7.30;;;6.53;;
6671;SDS011;3372;48.690;12.362;2022-08-23T05:13:31;7.53;;;6.80;;
6671;SDS011;3372;48.690;12.362;2022-08-23T05:15:58;7.83;;;7.03;;
6671;SDS011;3372;48.690;12.362;2022-08-23T05:18:24;8.23;;;7.43;;
6671;SDS011;3372;48.690;12.362;2022-08-23T05:20:51;8.23;;;7.30;;
6671;SDS011;3372;48.690;12.362;2022-08-23T05:23:17;8.17;;;7.10;;
6671;SDS011;3372;48.690;12.362;2022-08-23T05:25:43;8.63;;;7.83;;
6671;SDS011;3372;48.690;12.362;2022-08-23T05:28:15;9.40;;;8.20;;
6671;SDS011;3372;48.690;12.362;2022-08-23T05:30:57;10.20;;;7.50;;
6671;SDS011;3372;48.690;12.362;2022-08-23T05:33:26;9.67;;;8.20;;
6671;SDS011;3372;48.690;12.362;2022-08-23T05:35:52;10.13;;;7.70;;
6671;SDS011;3372;48.690;12.362;2022-08-23T05:38:18;9.97;;;8.97;;
6671;SDS011;3372;48.690;12.362;2022-08-23T05:40:47;11.90;;;8.60;;
6671;SDS011;3372;48.690;12.362;2022-08-23T05:43:14;8.80;;;7.43;;
6671;SDS011;3372;48.690;12.362;2022-08-23T05:45:40;9.90;;;8.90;;
6671;SDS011;3372;48.690;12.362;2022-08-23T05:48:06;10.37;;;9.27;;
6671;SDS011;3372;48.690;12.362;2022-08-23T05:50:31;10.50;;;9.33;;
6671;SDS011;3372;48.690;12.362;2022-08-23T05:52:59;10.10;;;8.90;;
6671;SDS011;3372;48.690;12.362;2022-08-23T05:55:25;9.70;;;8.70;;
6671;SDS011;3372;48.690;12.362;2022-08-23T05:57:50;9.67;;;7.93;;
6671;SDS011;3372;48.690;12.362;2022-08-23T06:00:16;9.70;;;8.30;;
6671;SDS011;3372;48.690;12.362;2022-08-23T06:02:42;9.47;;;8.43;;
6671;SDS011;3372;48.690;12.362;2022-08-23T06:05:08;10.63;;;9.40;;
6671;SDS011;3372;48.690;12.362;2022-08-23T06:07:34;10.40;;;9.10;;
6671;SDS011;3372;48.690;12.362;2022-08-23T06:10:00;10.60;;;8.77;;
6671;SDS011;3372;48.690;12.362;2022-08-23T06:12:29;10.50;;;8.83;;
6671;SDS011;3372;48.690;12.362;2022-08-23T06:14:56;9.20;;;8.33;;
6671;SDS011;3372;48.690;12.362;2022-08-23T06:17:21;11.60;;;8.60;;
6671;SDS011;3372;48.690;12.362;2022-08-23T06:19:47;9.57;;;8.67;;
6671;SDS011;3372;48.690;12.362;2022-08-23T06:22:13;10.47;;;8.27;;
6671;SDS011;3372;48.690;12.362;2022-08-23T06:24:38;8.07;;;7.27;;
6671;SDS011;3372;48.690;12.362;2022-08-23T06:27:04;9.77;;;7.67;;
6671;SDS011;3372;48.690;12.362;2022-08-23T06:29:31;8.97;;;7.33;;
6671;SDS011;3372;48.690;12.362;2022-08-23T06:31:57;8.50;;;7.70;;
6671;SDS011;3372;48.690;12.362;2022-08-23T06:34:24;8.83;;;7.93;;
6671;SDS011;3372;48.690;12.362;2022-08-23T06:36:57;9.93;;;7.70;;
6671;SDS011;3372;48.690;12.362;2022-08-23T06:39:26;9.77;;;7.97;;
6671;SDS011;3372;48.690;12.362;2022-08-23T06:41:56;7.70;;;6.90;;
6671;SDS011;3372;48.690;12.362;2022-08-23T06:44:24;9.63;;;6.53;;
6671;SDS011;3372;48.690;12.362;2022-08-23T06:46:51;10.17;;;6.70;;
6671;SDS011;3372;48.690;12.362;2022-08-23T06:49:18;7.57;;;6.57;;
6671;SDS011;3372;48.690;12.362;2022-08-23T06:51:45;7.00;;;6.30;;
6671;SDS011;3372;48.690;12.362;2022-08-23T06:54:14;7.70;;;6.70;;
6671;SDS011;3372;48.690;12.362;2022-08-23T06:56:44;6.70;;;6.10;;
6671;SDS011;3372;48.690;12.362;2022-08-23T06:59:10;8.33;;;6.50;;
6671;SDS011;3372;48.690;12.362;2022-08-23T07:01:44;7.73;;;6.43;;
6671;SDS011;3372;48.690;12.362;2022-08-23T07:04:14;7.50;;;6.67;;
6671;SDS011;3372;48.690;12.362;2022-08-23T07:06:44;7.73;;;6.60;;
6671;SDS011;3372;48.690;12.362;2022-08-23T07:09:10;8.03;;;6.40;;
6671;SDS011;3372;48.690;12.362;2022-08-23T07:11:36;9.93;;;7.10;;
6671;SDS011;3372;48.690;12.362;2022-08-23T07:14:04;8.27;;;6.73;;
6671;SDS011;3372;48.690;12.362;2022-08-23T07:16:32;7.20;;;6.53;;
6671;SDS011;3372;48.690;12.362;2022-08-23T07:19:07;8.07;;;7.27;;
6671;SDS011;3372;48.690;12.362;2022-08-23T07:21:33;7.90;;;6.90;;
6671;SDS011;3372;48.690;12.362;2022-08-23T07:23:59;9.10;;;6.70;;
6671;SDS011;3372;48.690;12.362;2022-08-23T07:26:27;8.07;;;7.37;;
6671;SDS011;3372;48.690;12.362;2022-08-23T07:28:53;8.47;;;6.07;;
6671;SDS011;3372;48.690;12.362;2022-08-23T07:33:46;6.60;;;5.90;;
6671;SDS011;3372;48.690;12.362;2022-08-23T07:36:14;6.70;;;6.00;;
6671;SDS011;3372;48.690;12.362;2022-08-23T07:38:45;9.47;;;6.53;;
6671;SDS011;3372;48.690;12.362;2022-08-23T07:41:10;7.13;;;5.43;;
6671;SDS011;3372;48.690;12.362;2022-08-23T07:43:37;8.17;;;5.73;;
6671;SDS011;3372;48.690;12.362;2022-08-23T07:46:03;6.43;;;5.57;;
6671;SDS011;3372;48.690;12.362;2022-08-23T07:48:29;6.97;;;6.23;;
6671;SDS011;3372;48.690;12.362;2022-08-23T07:50:57;6.63;;;6.00;;
6671;SDS011;3372;48.690;12.362;2022-08-23T07:53:25;7.00;;;5.90;;
6671;SDS011;3372;48.690;12.362;2022-08-23T07:55:51;6.87;;;5.80;;
6671;SDS011;3372;48.690;12.362;2022-08-23T07:58:17;6.93;;;6.23;;
6671;SDS011;3372;48.690;12.362;2022-08-23T08:00:44;8.17;;;5.70;;
6671;SDS011;3372;48.690;12.362;2022-08-23T08:03:10;6.90;;;6.03;;
6671;SDS011;3372;48.690;12.362;2022-08-23T08:05:37;7.50;;;6.60;;
6671;SDS011;3372;48.690;12.362;2022-08-23T08:08:04;6.33;;;5.73;;
6671;SDS011;3372;48.690;12.362;2022-08-23T08:10:30;8.40;;;6.40;;
6671;SDS011;3372;48.690;12.362;2022-08-23T08:12:56;7.03;;;6.33;;
6671;SDS011;3372;48.690;12.362;2022-08-23T08:15:22;7.40;;;6.37;;
6671;SDS011;3372;48.690;12.362;2022-08-23T08:17:49;7.90;;;6.27;;
6671;SDS011;3372;48.690;12.362;2022-08-23T08:20:16;7.90;;;6.53;;
6671;SDS011;3372;48.690;12.362;2022-08-23T08:22:46;8.60;;;5.73;;
6671;SDS011;3372;48.690;12.362;2022-08-23T08:25:12;10.30;;;5.57;;
6671;SDS011;3372;48.690;12.362;2022-08-23T08:27:39;6.23;;;5.50;;
6671;SDS011;3372;48.690;12.362;2022-08-23T08:30:05;6.70;;;5.03;;
6671;SDS011;3372;48.690;12.362;2022-08-23T08:32:32;6.93;;;4.93;;
6671;SDS011;3372;48.690;12.362;2022-08-23T08:34:58;6.57;;;4.73;;
6671;SDS011;3372;48.690;12.362;2022-08-23T08:37:24;7.60;;;5.33;;
6671;SDS011;3372;48.690;12.362;2022-08-23T08:39:50;5.97;;;4.40;;
6671;SDS011;3372;48.690;12.362;2022-08-23T08:45:04;7.00;;;5.30;;
6671;SDS011;3372;48.690;12.362;2022-08-23T08:47:37;6.40;;;5.40;;
6671;SDS011;3372;48.690;12.362;2022-08-23T08:53:09;5.73;;;5.10;;
6671;SDS011;3372;48.690;12.362;2022-08-23T08:55:38;6.00;;;4.97;;
6671;SDS011;3372;48.690;12.362;2022-08-23T08:58:23;6.33;;;5.00;;
6671;SDS011;3372;48.690;12.362;2022-08-23T09:01:10;8.20;;;5.20;;
6671;SDS011;3372;48.690;12.362;2022-08-23T09:03:36;4.47;;;4.00;;
6671;SDS011;3372;48.690;12.362;2022-08-23T09:17:17;7.07;;;4.40;;
6671;SDS011;3372;48.690;12.362;2022-08-23T09:19:59;5.43;;;4.20;;
6671;SDS011;3372;48.690;12.362;2022-08-23T09:22:45;6.93;;;4.07;;
6671;SDS011;3372;48.690;12.362;2022-08-23T09:25:13;4.53;;;3.83;;
6671;SDS011;3372;48.690;12.362;2022-08-23T09:27:41;4.67;;;3.47;;
6671;SDS011;3372;48.690;12.362;2022-08-23T09:30:08;4.40;;;4.00;;
6671;SDS011;3372;48.690;12.362;2022-08-23T09:32:41;4.90;;;4.40;;
6671;SDS011;3372;48.690;12.362;2022-08-23T09:37:57;5.60;;;4.20;;
6671;SDS011;3372;48.690;12.362;2022-08-23T09:43:10;5.23;;;3.87;;
6671;SDS011;3372;48.690;12.362;2022-08-23T09:45:40;5.30;;;3.50;;
6671;SDS011;3372;48.690;12.362;2022-08-23T09:48:12;4.07;;;3.67;;
6671;SDS011;3372;48.690;12.362;2022-08-23T09:50:45;3.90;;;3.30;;
6671;SDS011;3372;48.690;12.362;2022-08-23T09:53:25;4.23;;;3.83;;
6671;SDS011;3372;48.690;12.362;2022-08-23T09:55:53;3.70;;;3.40;;
6671;SDS011;3372;48.690;12.362;2022-08-23T09:58:43;5.50;;;3.30;;
6671;SDS011;3372;48.690;12.362;2022-08-23T10:01:15;3.67;;;2.90;;
6671;SDS011;3372;48.690;12.362;2022-08-23T10:03:44;4.40;;;3.37;;
6671;SDS011;3372;48.690;12.362;2022-08-23T10:06:11;2.80;;;2.60;;
6671;SDS011;3372;48.690;12.362;2022-08-23T10:08:53;3.70;;;2.80;;
6671;SDS011;3372;48.690;12.362;2022-08-23T10:11:27;4.37;;;3.30;;
6671;SDS011;3372;48.690;12.362;2022-08-23T10:13:55;5.07;;;3.03;;
6671;SDS011;3372;48.690;12.362;2022-08-23T10:22:20;3.00;;;2.63;;
6671;SDS011;3372;48.690;12.362;2022-08-23T10:33:48;3.03;;;2.63;;
6671;SDS011;3372;48.690;12.362;2022-08-23T10:36:37;3.93;;;2.70;;
6671;SDS011;3372;48.690;12.362;2022-08-23T10:39:26;2.80;;;2.00;;
6671;SDS011;3372;48.690;12.362;2022-08-23T10:42:07;3.00;;;2.60;;
6671;SDS011;3372;48.690;12.362;2022-08-23T10:44:43;5.00;;;2.60;;
6671;SDS011;3372;48.690;12.362;2022-08-23T10:48:19;3.37;;;2.53;;
6671;SDS011;3372;48.690;12.362;2022-08-23T10:50:22;4.13;;;2.30;;
6671;SDS011;3372;48.690;12.362;2022-08-23T10:52:59;3.53;;;1.90;;
6671;SDS011;3372;48.690;12.362;2022-08-23T10:55:33;2.50;;;2.30;;
6671;SDS011;3372;48.690;12.362;2022-08-23T10:58:24;2.97;;;2.33;;
6671;SDS011;3372;48.690;12.362;2022-08-23T11:00:52;3.13;;;2.60;;
6671;SDS011;3372;48.690;12.362;2022-08-23T11:03:24;3.00;;;2.10;;
6671;SDS011;3372;48.690;12.362;2022-08-23T11:06:23;3.87;;;2.03;;
6671;SDS011;3372;48.690;12.362;2022-08-23T11:11:45;2.40;;;2.20;;
6671;SDS011;3372;48.690;12.362;2022-08-23T11:16:59;2.13;;;1.93;;
6671;SDS011;3372;48.690;12.362;2022-08-23T11:22:20;3.23;;;2.40;;
6671;SDS011;3372;48.690;12.362;2022-08-23T11:27:24;2.90;;;2.03;;
6671;SDS011;3372;48.690;12.362;2022-08-23T11:29:51;2.33;;;2.13;;
6671;SDS011;3372;48.690;12.362;2022-08-23T11:32:22;2.80;;;1.77;;
6671;SDS011;3372;48.690;12.362;2022-08-23T11:35:11;2.43;;;2.00;;
6671;SDS011;3372;48.690;12.362;2022-08-23T11:38:00;2.83;;;1.60;;
6671;SDS011;3372;48.690;12.362;2022-08-23T11:43:36;2.37;;;1.53;;
6671;SDS011;3372;48.690;12.362;2022-08-23T11:48:48;2.43;;;2.00;;
6671;SDS011;3372;48.690;12.362;2022-08-23T11:56:51;1.90;;;1.70;;
6671;SDS011;3372;48.690;12.362;2022-08-23T12:05:24;2.40;;;1.77;;
6671;SDS011;3372;48.690;12.362;2022-08-23T12:18:28;3.23;;;2.43;;
6671;SDS011;3372;48.690;12.362;2022-08-23T12:20:57;2.20;;;2.00;;
6671;SDS011;3372;48.690;12.362;2022-08-23T12:23:28;2.47;;;2.27;;
6671;SDS011;3372;48.690;12.362;2022-08-23T12:25:59;2.90;;;2.10;;
6671;SDS011;3372;48.690;12.362;2022-08-23T12:28:33;2.50;;;1.80;;
6671;SDS011;3372;48.690;12.362;2022-08-23T12:39:28;2.30;;;2.07;;
6671;SDS011;3372;48.690;12.362;2022-08-23T12:42:06;2.50;;;2.17;;
6671;SDS011;3372;48.690;12.362;2022-08-23T12:44:39;2.23;;;1.77;;
6671;SDS011;3372;48.690;12.362;2022-08-23T12:47:10;2.10;;;1.90;;
6671;SDS011;3372;48.690;12.362;2022-08-23T12:49:37;2.77;;;2.20;;
6671;SDS011;3372;48.690;12.362;2022-08-23T12:52:07;2.30;;;2.10;;
6671;SDS011;3372;48.690;12.362;2022-08-23T12:54:42;2.83;;;2.13;;
6671;SDS011;3372;48.690;12.362;2022-08-23T12:57:11;4.40;;;2.20;;
6671;SDS011;3372;48.690;12.362;2022-08-23T13:02:23;3.33;;;2.10;;
6671;SDS011;3372;48.690;12.362;2022-08-23T13:04:52;2.67;;;2.10;;
6671;SDS011;3372;48.690;12.362;2022-08-23T13:07:26;2.20;;;2.00;;
6671;SDS011;3372;48.690;12.362;2022-08-23T13:09:52;2.80;;;2.30;;
6671;SDS011;3372;48.690;12.362;2022-08-23T13:12:18;2.80;;;2.10;;
6671;SDS011;3372;48.690;12.362;2022-08-23T13:14:46;3.10;;;2.37;;
6671;SDS011;3372;48.690;12.362;2022-08-23T13:17:15;3.30;;;2.20;;
6671;SDS011;3372;48.690;12.362;2022-08-23T13:19:43;2.50;;;2.23;;
6671;SDS011;3372;48.690;12.362;2022-08-23T13:22:21;2.90;;;2.30;;
6671;SDS011;3372;48.690;12.362;2022-08-23T13:27:30;3.60;;;2.20;;
6671;SDS011;3372;48.690;12.362;2022-08-23T13:32:42;2.93;;;2.67;;
6671;SDS011;3372;48.690;12.362;2022-08-23T13:38:14;2.63;;;2.43;;
6671;SDS011;3372;48.690;12.362;2022-08-23T13:43:39;3.03;;;2.17;;
6671;SDS011;3372;48.690;12.362;2022-08-23T13:51:30;3.13;;;1.83;;
6671;SDS011;3372;48.690;12.362;2022-08-23T13:53:59;2.50;;;2.30;;
6671;SDS011;3372;48.690;12.362;2022-08-23T13:56:27;2.87;;;2.50;;
6671;SDS011;3372;48.690;12.362;2022-08-23T13:58:58;2.60;;;2.40;;
6671;SDS011;3372;48.690;12.362;2022-08-23T14:01:26;2.63;;;2.07;;
6671;SDS011;3372;48.690;12.362;2022-08-23T14:03:53;2.17;;;1.97;;
6671;SDS011;3372;48.690;12.362;2022-08-23T14:06:18;2.53;;;1.90;;
6671;SDS011;3372;48.690;12.362;2022-08-23T14:08:44;2.90;;;2.00;;
6671;SDS011;3372;48.690;12.362;2022-08-23T14:11:10;2.73;;;1.73;;
6671;SDS011;3372;48.690;12.362;2022-08-23T14:13:40;2.33;;;1.80;;
6671;SDS011;3372;48.690;12.362;2022-08-23T14:16:09;1.93;;;1.80;;
6671;SDS011;3372;48.690;12.362;2022-08-23T14:18:40;2.20;;;1.60;;
6671;SDS011;3372;48.690;12.362;2022-08-23T14:21:06;2.87;;;1.63;;
6671;SDS011;3372;48.690;12.362;2022-08-23T14:23:32;2.00;;;1.70;;
6671;SDS011;3372;48.690;12.362;2022-08-23T14:25:57;2.27;;;1.93;;
6671;SDS011;3372;48.690;12.362;2022-08-23T14:28:25;2.77;;;1.90;;
6671;SDS011;3372;48.690;12.362;2022-08-23T14:30:52;2.37;;;1.67;;
6671;SDS011;3372;48.690;12.362;2022-08-23T14:33:18;2.00;;;1.70;;
6671;SDS011;3372;48.690;12.362;2022-08-23T14:35:45;2.47;;;1.60;;
6671;SDS011;3372;48.690;12.362;2022-08-23T14:38:11;3.20;;;2.00;;
6671;SDS011;3372;48.690;12.362;2022-08-23T14:40:39;2.53;;;1.77;;
6671;SDS011;3372;48.690;12.362;2022-08-23T14:43:08;1.93;;;1.73;;
6671;SDS011;3372;48.690;12.362;2022-08-23T14:45:34;3.07;;;1.80;;
6671;SDS011;3372;48.690;12.362;2022-08-23T14:48:00;3.97;;;1.77;;
6671;SDS011;3372;48.690;12.362;2022-08-23T14:50:26;2.63;;;1.90;;
6671;SDS011;3372;48.690;12.362;2022-08-23T14:52:52;2.37;;;1.60;;
6671;SDS011;3372;48.690;12.362;2022-08-23T14:55:20;2.27;;;1.70;;
6671;SDS011;3372;48.690;12.362;2022-08-23T14:57:45;2.53;;;1.83;;
6671;SDS011;3372;48.690;12.362;2022-08-23T15:00:13;2.80;;;1.43;;
6671;SDS011;3372;48.690;12.362;2022-08-23T15:02:41;2.40;;;2.20;;
6671;SDS011;3372;48.690;12.362;2022-08-23T15:05:08;2.43;;;1.70;;
6671;SDS011;3372;48.690;12.362;2022-08-23T15:07:35;2.37;;;1.50;;
6671;SDS011;3372;48.690;12.362;2022-08-23T15:10:01;1.90;;;1.60;;
6671;SDS011;3372;48.690;12.362;2022-08-23T15:12:28;1.80;;;1.50;;
6671;SDS011;3372;48.690;12.362;2022-08-23T15:14:54;3.27;;;1.80;;
6671;SDS011;3372;48.690;12.362;2022-08-23T15:17:19;2.53;;;1.50;;
6671;SDS011;3372;48.690;12.362;2022-08-23T15:19:45;1.70;;;1.50;;
6671;SDS011;3372;48.690;12.362;2022-08-23T15:22:11;1.83;;;1.40;;
6671;SDS011;3372;48.690;12.362;2022-08-23T15:24:36;2.77;;;1.70;;
6671;SDS011;3372;48.690;12.362;2022-08-23T15:27:03;1.60;;;1.43;;
6671;SDS011;3372;48.690;12.362;2022-08-23T15:29:29;1.70;;;1.50;;
6671;SDS011;3372;48.690;12.362;2022-08-23T15:31:55;2.50;;;1.67;;
6671;SDS011;3372;48.690;12.362;2022-08-23T15:34:20;3.37;;;1.93;;
6671;SDS011;3372;48.690;12.362;2022-08-23T15:36:46;3.17;;;2.20;;
6671;SDS011;3372;48.690;12.362;2022-08-23T15:39:13;4.60;;;1.97;;
6671;SDS011;3372;48.690;12.362;2022-08-23T15:41:38;3.87;;;1.53;;
6671;SDS011;3372;48.690;12.362;2022-08-23T15:44:04;2.63;;;1.70;;
6671;SDS011;3372;48.690;12.362;2022-08-23T15:46:30;3.00;;;1.90;;
6671;SDS011;3372;48.690;12.362;2022-08-23T15:48:57;1.90;;;1.70;;
6671;SDS011;3372;48.690;12.362;2022-08-23T15:51:26;2.30;;;1.80;;
6671;SDS011;3372;48.690;12.362;2022-08-23T15:53:52;5.50;;;1.70;;
6671;SDS011;3372;48.690;12.362;2022-08-23T15:56:19;2.40;;;1.73;;
6671;SDS011;3372;48.690;12.362;2022-08-23T15:58:48;2.33;;;1.73;;
6671;SDS011;3372;48.690;12.362;2022-08-23T16:01:17;2.23;;;1.57;;
6671;SDS011;3372;48.690;12.362;2022-08-23T16:03:42;3.10;;;1.70;;
6671;SDS011;3372;48.690;12.362;2022-08-23T16:06:09;3.70;;;1.50;;
6671;SDS011;3372;48.690;12.362;2022-08-23T16:08:36;1.97;;;1.67;;
6671;SDS011;3372;48.690;12.362;2022-08-23T16:11:04;1.90;;;1.57;;
6671;SDS011;3372;48.690;12.362;2022-08-23T16:13:35;1.97;;;1.77;;
6671;SDS011;3372;48.690;12.362;2022-08-23T16:16:04;1.90;;;1.70;;
6671;SDS011;3372;48.690;12.362;2022-08-23T16:18:33;2.70;;;1.60;;
6671;SDS011;3372;48.690;12.362;2022-08-23T16:20:58;1.90;;;1.60;;
6671;SDS011;3372;48.690;12.362;2022-08-23T16:23:24;2.47;;;1.90;;
6671;SDS011;3372;48.690;12.362;2022-08-23T16:25:50;2.17;;;1.70;;
6671;SDS011;3372;48.690;12.362;2022-08-23T16:28:16;2.00;;;1.80;;
6671;SDS011;3372;48.690;12.362;2022-08-23T16:30:42;2.00;;;1.50;;
6671;SDS011;3372;48.690;12.362;2022-08-23T16:33:07;2.20;;;1.70;;
6671;SDS011;3372;48.690;12.362;2022-08-23T16:35:33;2.00;;;1.80;;
6671;SDS011;3372;48.690;12.362;2022-08-23T16:37:59;3.10;;;1.60;;
6671;SDS011;3372;48.690;12.362;2022-08-23T16:40:24;3.20;;;1.70;;
6671;SDS011;3372;48.690;12.362;2022-08-23T16:42:50;1.90;;;1.60;;
6671;SDS011;3372;48.690;12.362;2022-08-23T16:45:16;1.90;;;1.70;;
6671;SDS011;3372;48.690;12.362;2022-08-23T16:47:42;2.20;;;1.80;;
6671;SDS011;3372;48.690;12.362;2022-08-23T16:50:09;2.07;;;1.77;;
6671;SDS011;3372;48.690;12.362;2022-08-23T16:52:36;2.10;;;1.80;;
6671;SDS011;3372;48.690;12.362;2022-08-23T16:55:02;2.03;;;1.83;;
6671;SDS011;3372;48.690;12.362;2022-08-23T16:57:30;2.13;;;1.50;;
6671;SDS011;3372;48.690;12.362;2022-08-23T16:59:55;2.30;;;1.83;;
6671;SDS011;3372;48.690;12.362;2022-08-23T17:02:24;2.00;;;1.70;;
6671;SDS011;3372;48.690;12.362;2022-08-23T17:04:56;1.80;;;1.70;;